Sioralik

KL  EN  DA
ASIAQ
Weather Now GREENLAND SURVEY
Updated [WGT/WGST] Temperature [°C] Wind [m/s] Air pressure [hPa] Relative humidity [%] Precipitation [mm]
Present Wind chill Speed Max
17.01 13:00-4,9-14,011,3 ⇗15,4101277n/a
17.01 12:00-4,2-12,910,8 ⇗13,4101277n/a
17.01 11:00-4,1-12,08,8 ⇗11,3101179n/a
17.01 10:00-3,8-11,68,8 ⇗11,3101077n/a
17.01 09:00-4,5-13,611,8 ⇗14,4100889n/a
17.01 08:00-2,8-10,79,8 ⇗11,8100775n/a
17.01 07:00-2,2-9,58,8 ⇗11,3100672n/a
17.01 06:00-2,1-9,910,3 ⇒12,4100581n/a
17.01 05:00-2,4-8,35,7 ⇑7,7100493n/a
17.01 04:00-2,1-9,18,2 ⇗9,8100390n/a
17.01 03:00-3,1-11,912,4 ⇖14,9100290n/a
17.01 02:00-3,4-12,914,4 ⇐18,5100287n/a
17.01 01:00-3,7-13,414,9 ⇐18,0100375n/a
17.01 00:00-3,1-12,112,9 ⇐16,0100363n/a
16.01 23:00-3,7-12,912,9 ⇐15,4100462n/a
16.01 22:00-4,3-13,712,9 ⇐15,4100562n/a
16.01 21:00-4,5-13,611,8 ⇐13,9100667n/a
16.01 20:00n/an/an/an/an/an/an/a
16.01 19:00-4,4-13,110,8 ⇐12,4100768n/a
16.01 18:00-4,6-13,210,3 ⇐12,4100871n/a
16.01 17:00-5,0-14,111,3 ⇐12,9100872n/a
16.01 16:00-4,7-13,510,8 ⇐12,9100975n/a
16.01 15:00-4,2-13,111,3 ⇐13,4100880n/a
16.01 14:00-4,3-13,211,3 ⇐13,4100978n/a
16.01 13:00-4,3-13,211,3 ⇐13,4101081n/a
Position: (65.01305556,-52.52861111)

[Back]